sensor_id;sensor_type;location;lat;lon;timestamp;P1;durP1;ratioP1;P2;durP2;ratioP2
54745;SDS011;40640;48.130;11.356;2023-06-14T00:01:03;9.13;;;4.50;;
54745;SDS011;40640;48.130;11.356;2023-06-14T00:05:09;7.07;;;4.07;;
54745;SDS011;40640;48.130;11.356;2023-06-14T00:09:13;8.18;;;4.20;;
54745;SDS011;40640;48.130;11.356;2023-06-14T00:13:18;6.25;;;4.50;;
54745;SDS011;40640;48.130;11.356;2023-06-14T00:17:23;6.30;;;3.75;;
54745;SDS011;40640;48.130;11.356;2023-06-14T00:21:26;8.52;;;4.32;;
54745;SDS011;40640;48.130;11.356;2023-06-14T00:25:29;11.02;;;4.47;;
54745;SDS011;40640;48.130;11.356;2023-06-14T00:29:32;5.75;;;3.65;;
54745;SDS011;40640;48.130;11.356;2023-06-14T00:33:39;6.43;;;3.65;;
54745;SDS011;40640;48.130;11.356;2023-06-14T00:37:42;7.65;;;3.60;;
54745;SDS011;40640;48.130;11.356;2023-06-14T00:41:45;6.70;;;3.80;;
54745;SDS011;40640;48.130;11.356;2023-06-14T00:45:48;8.52;;;3.92;;
54745;SDS011;40640;48.130;11.356;2023-06-14T00:49:53;9.73;;;3.88;;
54745;SDS011;40640;48.130;11.356;2023-06-14T00:53:58;7.50;;;4.03;;
54745;SDS011;40640;48.130;11.356;2023-06-14T00:58:00;6.68;;;3.40;;
54745;SDS011;40640;48.130;11.356;2023-06-14T01:02:04;7.78;;;3.92;;
54745;SDS011;40640;48.130;11.356;2023-06-14T01:06:15;9.68;;;4.00;;
54745;SDS011;40640;48.130;11.356;2023-06-14T01:10:32;6.60;;;3.90;;
54745;SDS011;40640;48.130;11.356;2023-06-14T01:14:41;11.05;;;4.20;;
54745;SDS011;40640;48.130;11.356;2023-06-14T01:18:45;8.57;;;5.05;;
54745;SDS011;40640;48.130;11.356;2023-06-14T01:22:52;10.33;;;4.23;;
54745;SDS011;40640;48.130;11.356;2023-06-14T01:26:55;7.30;;;4.18;;
54745;SDS011;40640;48.130;11.356;2023-06-14T01:31:02;8.52;;;4.22;;
54745;SDS011;40640;48.130;11.356;2023-06-14T01:35:07;11.07;;;4.55;;
54745;SDS011;40640;48.130;11.356;2023-06-14T01:39:12;17.13;;;7.03;;
54745;SDS011;40640;48.130;11.356;2023-06-14T01:43:17;7.85;;;4.80;;
54745;SDS011;40640;48.130;11.356;2023-06-14T01:47:21;10.13;;;3.85;;
54745;SDS011;40640;48.130;11.356;2023-06-14T01:51:24;5.13;;;3.67;;
54745;SDS011;40640;48.130;11.356;2023-06-14T01:55:32;7.30;;;3.92;;
54745;SDS011;40640;48.130;11.356;2023-06-14T01:59:41;10.18;;;4.55;;
54745;SDS011;40640;48.130;11.356;2023-06-14T02:03:43;6.00;;;3.97;;
54745;SDS011;40640;48.130;11.356;2023-06-14T02:07:50;4.95;;;3.88;;
54745;SDS011;40640;48.130;11.356;2023-06-14T02:11:54;5.03;;;3.90;;
54745;SDS011;40640;48.130;11.356;2023-06-14T02:15:57;7.18;;;3.90;;
54745;SDS011;40640;48.130;11.356;2023-06-14T02:20:02;7.10;;;4.03;;
54745;SDS011;40640;48.130;11.356;2023-06-14T02:24:07;12.88;;;4.43;;
54745;SDS011;40640;48.130;11.356;2023-06-14T02:28:11;7.38;;;4.43;;
54745;SDS011;40640;48.130;11.356;2023-06-14T02:32:14;7.82;;;4.60;;
54745;SDS011;40640;48.130;11.356;2023-06-14T02:36:19;6.05;;;3.90;;
54745;SDS011;40640;48.130;11.356;2023-06-14T02:40:23;8.40;;;4.45;;
54745;SDS011;40640;48.130;11.356;2023-06-14T02:44:27;6.22;;;4.13;;
54745;SDS011;40640;48.130;11.356;2023-06-14T02:48:30;6.50;;;4.28;;
54745;SDS011;40640;48.130;11.356;2023-06-14T02:52:33;6.75;;;3.92;;
54745;SDS011;40640;48.130;11.356;2023-06-14T02:56:36;8.52;;;4.38;;
54745;SDS011;40640;48.130;11.356;2023-06-14T03:00:40;4.82;;;3.72;;
54745;SDS011;40640;48.130;11.356;2023-06-14T03:04:44;7.43;;;3.95;;
54745;SDS011;40640;48.130;11.356;2023-06-14T03:08:50;10.15;;;4.22;;
54745;SDS011;40640;48.130;11.356;2023-06-14T03:12:57;6.05;;;3.78;;
54745;SDS011;40640;48.130;11.356;2023-06-14T03:17:01;8.60;;;3.70;;
54745;SDS011;40640;48.130;11.356;2023-06-14T03:21:08;8.00;;;4.13;;
54745;SDS011;40640;48.130;11.356;2023-06-14T03:25:16;8.48;;;4.00;;
54745;SDS011;40640;48.130;11.356;2023-06-14T03:33:27;5.45;;;4.07;;
54745;SDS011;40640;48.130;11.356;2023-06-14T03:37:29;8.40;;;3.83;;
54745;SDS011;40640;48.130;11.356;2023-06-14T03:41:32;8.18;;;3.88;;
54745;SDS011;40640;48.130;11.356;2023-06-14T03:45:36;13.73;;;4.35;;
54745;SDS011;40640;48.130;11.356;2023-06-14T03:49:40;8.00;;;4.22;;
54745;SDS011;40640;48.130;11.356;2023-06-14T03:53:44;6.00;;;4.22;;
54745;SDS011;40640;48.130;11.356;2023-06-14T03:58:08;7.10;;;4.38;;
54745;SDS011;40640;48.130;11.356;2023-06-14T04:02:11;6.10;;;4.25;;
54745;SDS011;40640;48.130;11.356;2023-06-14T04:06:19;6.93;;;4.68;;
54745;SDS011;40640;48.130;11.356;2023-06-14T04:10:22;5.82;;;3.78;;
54745;SDS011;40640;48.130;11.356;2023-06-14T04:14:26;8.65;;;4.75;;
54745;SDS011;40640;48.130;11.356;2023-06-14T04:18:30;7.00;;;4.47;;
54745;SDS011;40640;48.130;11.356;2023-06-14T04:22:36;6.18;;;4.15;;
54745;SDS011;40640;48.130;11.356;2023-06-14T04:26:40;5.38;;;3.90;;
54745;SDS011;40640;48.130;11.356;2023-06-14T04:30:47;6.38;;;4.28;;
54745;SDS011;40640;48.130;11.356;2023-06-14T04:34:53;6.28;;;4.00;;
54745;SDS011;40640;48.130;11.356;2023-06-14T04:38:58;7.47;;;4.45;;
54745;SDS011;40640;48.130;11.356;2023-06-14T04:43:02;8.57;;;4.90;;
54745;SDS011;40640;48.130;11.356;2023-06-14T04:47:06;9.63;;;4.68;;
54745;SDS011;40640;48.130;11.356;2023-06-14T04:51:09;10.55;;;4.18;;
54745;SDS011;40640;48.130;11.356;2023-06-14T04:55:14;9.15;;;4.60;;
54745;SDS011;40640;48.130;11.356;2023-06-14T04:59:18;6.55;;;4.90;;
54745;SDS011;40640;48.130;11.356;2023-06-14T05:03:21;8.05;;;4.90;;
54745;SDS011;40640;48.130;11.356;2023-06-14T05:07:25;8.65;;;4.82;;
54745;SDS011;40640;48.130;11.356;2023-06-14T05:11:30;8.43;;;4.78;;
54745;SDS011;40640;48.130;11.356;2023-06-14T05:15:33;10.07;;;4.88;;
54745;SDS011;40640;48.130;11.356;2023-06-14T05:19:37;7.05;;;4.47;;
54745;SDS011;40640;48.130;11.356;2023-06-14T05:23:40;10.35;;;5.28;;
54745;SDS011;40640;48.130;11.356;2023-06-14T05:27:44;6.32;;;4.68;;
54745;SDS011;40640;48.130;11.356;2023-06-14T05:31:47;10.27;;;4.57;;
54745;SDS011;40640;48.130;11.356;2023-06-14T05:35:50;6.35;;;4.53;;
54745;SDS011;40640;48.130;11.356;2023-06-14T05:39:53;8.27;;;4.75;;
54745;SDS011;40640;48.130;11.356;2023-06-14T05:43:57;6.05;;;4.15;;
54745;SDS011;40640;48.130;11.356;2023-06-14T05:48:01;8.67;;;3.97;;
54745;SDS011;40640;48.130;11.356;2023-06-14T05:52:04;15.25;;;3.80;;
54745;SDS011;40640;48.130;11.356;2023-06-14T05:56:08;15.32;;;4.53;;
54745;SDS011;40640;48.130;11.356;2023-06-14T06:00:13;14.45;;;3.88;;
54745;SDS011;40640;48.130;11.356;2023-06-14T06:04:17;13.57;;;3.35;;
54745;SDS011;40640;48.130;11.356;2023-06-14T06:08:20;5.13;;;3.78;;
54745;SDS011;40640;48.130;11.356;2023-06-14T06:12:23;10.45;;;3.70;;
54745;SDS011;40640;48.130;11.356;2023-06-14T06:16:27;8.13;;;3.65;;
54745;SDS011;40640;48.130;11.356;2023-06-14T06:20:43;11.95;;;4.07;;
54745;SDS011;40640;48.130;11.356;2023-06-14T06:24:48;7.63;;;3.40;;
54745;SDS011;40640;48.130;11.356;2023-06-14T06:28:51;4.72;;;3.30;;
54745;SDS011;40640;48.130;11.356;2023-06-14T06:32:56;4.55;;;3.10;;
54745;SDS011;40640;48.130;11.356;2023-06-14T06:37:00;8.93;;;4.45;;
54745;SDS011;40640;48.130;11.356;2023-06-14T06:41:03;7.15;;;3.40;;
54745;SDS011;40640;48.130;11.356;2023-06-14T06:45:06;6.82;;;3.35;;
54745;SDS011;40640;48.130;11.356;2023-06-14T06:49:11;16.50;;;4.00;;
54745;SDS011;40640;48.130;11.356;2023-06-14T06:53:14;9.68;;;3.90;;
54745;SDS011;40640;48.130;11.356;2023-06-14T06:57:27;9.60;;;3.60;;
54745;SDS011;40640;48.130;11.356;2023-06-14T07:01:30;11.50;;;3.38;;
54745;SDS011;40640;48.130;11.356;2023-06-14T07:05:36;6.15;;;3.45;;
54745;SDS011;40640;48.130;11.356;2023-06-14T07:09:39;14.25;;;4.05;;
54745;SDS011;40640;48.130;11.356;2023-06-14T07:13:43;13.98;;;4.30;;
54745;SDS011;40640;48.130;11.356;2023-06-14T07:17:46;6.45;;;3.58;;
54745;SDS011;40640;48.130;11.356;2023-06-14T07:21:51;16.90;;;3.85;;
54745;SDS011;40640;48.130;11.356;2023-06-14T07:25:55;7.97;;;4.17;;
54745;SDS011;40640;48.130;11.356;2023-06-14T07:29:58;7.40;;;3.60;;
54745;SDS011;40640;48.130;11.356;2023-06-14T07:34:01;6.13;;;3.53;;
54745;SDS011;40640;48.130;11.356;2023-06-14T07:38:05;11.00;;;3.70;;
54745;SDS011;40640;48.130;11.356;2023-06-14T07:42:08;8.15;;;3.65;;
54745;SDS011;40640;48.130;11.356;2023-06-14T07:46:12;12.45;;;3.33;;
54745;SDS011;40640;48.130;11.356;2023-06-14T07:50:15;8.65;;;3.10;;
54745;SDS011;40640;48.130;11.356;2023-06-14T07:54:19;6.20;;;3.10;;
54745;SDS011;40640;48.130;11.356;2023-06-14T07:58:26;11.38;;;3.85;;
54745;SDS011;40640;48.130;11.356;2023-06-14T08:02:29;4.28;;;2.63;;
54745;SDS011;40640;48.130;11.356;2023-06-14T08:06:33;10.32;;;3.42;;
54745;SDS011;40640;48.130;11.356;2023-06-14T08:10:37;5.85;;;3.00;;
54745;SDS011;40640;48.130;11.356;2023-06-14T08:14:40;8.20;;;3.20;;
54745;SDS011;40640;48.130;11.356;2023-06-14T08:18:44;6.65;;;3.05;;
54745;SDS011;40640;48.130;11.356;2023-06-14T08:22:47;12.65;;;3.10;;
54745;SDS011;40640;48.130;11.356;2023-06-14T08:26:51;4.63;;;3.17;;
54745;SDS011;40640;48.130;11.356;2023-06-14T08:30:54;6.18;;;2.97;;
54745;SDS011;40640;48.130;11.356;2023-06-14T08:34:57;7.70;;;3.25;;
54745;SDS011;40640;48.130;11.356;2023-06-14T08:39:06;7.15;;;3.60;;
54745;SDS011;40640;48.130;11.356;2023-06-14T08:43:11;11.98;;;3.03;;
54745;SDS011;40640;48.130;11.356;2023-06-14T08:47:14;11.98;;;3.10;;
54745;SDS011;40640;48.130;11.356;2023-06-14T08:51:19;4.78;;;2.63;;
54745;SDS011;40640;48.130;11.356;2023-06-14T08:55:24;7.57;;;2.97;;
54745;SDS011;40640;48.130;11.356;2023-06-14T08:59:33;6.75;;;2.97;;
54745;SDS011;40640;48.130;11.356;2023-06-14T09:03:40;7.97;;;3.28;;
54745;SDS011;40640;48.130;11.356;2023-06-14T09:07:43;5.20;;;3.05;;
54745;SDS011;40640;48.130;11.356;2023-06-14T09:11:46;7.47;;;2.63;;
54745;SDS011;40640;48.130;11.356;2023-06-14T09:15:51;5.80;;;3.10;;
54745;SDS011;40640;48.130;11.356;2023-06-14T09:19:54;3.03;;;2.72;;
54745;SDS011;40640;48.130;11.356;2023-06-14T09:23:58;6.68;;;2.88;;
54745;SDS011;40640;48.130;11.356;2023-06-14T09:28:03;8.77;;;2.65;;
54745;SDS011;40640;48.130;11.356;2023-06-14T09:32:11;5.60;;;2.92;;
54745;SDS011;40640;48.130;11.356;2023-06-14T09:36:14;7.70;;;2.97;;
54745;SDS011;40640;48.130;11.356;2023-06-14T09:40:20;5.25;;;2.70;;
54745;SDS011;40640;48.130;11.356;2023-06-14T09:44:23;3.53;;;2.60;;
54745;SDS011;40640;48.130;11.356;2023-06-14T09:48:31;6.65;;;3.03;;
54745;SDS011;40640;48.130;11.356;2023-06-14T09:52:34;7.55;;;3.10;;
54745;SDS011;40640;48.130;11.356;2023-06-14T09:56:38;9.93;;;3.38;;
54745;SDS011;40640;48.130;11.356;2023-06-14T10:00:45;7.55;;;2.70;;
54745;SDS011;40640;48.130;11.356;2023-06-14T10:04:55;3.95;;;2.92;;
54745;SDS011;40640;48.130;11.356;2023-06-14T10:09:08;8.90;;;3.90;;
54745;SDS011;40640;48.130;11.356;2023-06-14T10:13:12;6.43;;;3.20;;
54745;SDS011;40640;48.130;11.356;2023-06-14T10:17:19;6.82;;;3.45;;
54745;SDS011;40640;48.130;11.356;2023-06-14T10:21:32;10.15;;;3.17;;
54745;SDS011;40640;48.130;11.356;2023-06-14T10:25:39;9.55;;;3.40;;
54745;SDS011;40640;48.130;11.356;2023-06-14T10:38:57;5.60;;;3.05;;
54745;SDS011;40640;48.130;11.356;2023-06-14T10:43:01;6.95;;;3.25;;
54745;SDS011;40640;48.130;11.356;2023-06-14T10:47:42;10.90;;;3.17;;
54745;SDS011;40640;48.130;11.356;2023-06-14T10:51:46;6.60;;;2.97;;
54745;SDS011;40640;48.130;11.356;2023-06-14T10:55:54;6.50;;;2.83;;
54745;SDS011;40640;48.130;11.356;2023-06-14T10:59:59;4.68;;;2.92;;
54745;SDS011;40640;48.130;11.356;2023-06-14T11:04:09;6.05;;;3.25;;
54745;SDS011;40640;48.130;11.356;2023-06-14T11:12:51;6.97;;;3.40;;
54745;SDS011;40640;48.130;11.356;2023-06-14T11:16:57;5.38;;;3.20;;
54745;SDS011;40640;48.130;11.356;2023-06-14T11:21:00;5.13;;;3.20;;
54745;SDS011;40640;48.130;11.356;2023-06-14T11:25:03;5.25;;;2.65;;
54745;SDS011;40640;48.130;11.356;2023-06-14T11:29:09;12.35;;;3.38;;
54745;SDS011;40640;48.130;11.356;2023-06-14T11:33:15;11.13;;;3.03;;
54745;SDS011;40640;48.130;11.356;2023-06-14T11:37:19;5.70;;;3.20;;
54745;SDS011;40640;48.130;11.356;2023-06-14T11:41:24;5.70;;;3.97;;
54745;SDS011;40640;48.130;11.356;2023-06-14T11:45:29;6.45;;;2.83;;
54745;SDS011;40640;48.130;11.356;2023-06-14T11:49:34;6.72;;;3.10;;
54745;SDS011;40640;48.130;11.356;2023-06-14T11:53:38;6.78;;;3.20;;
54745;SDS011;40640;48.130;11.356;2023-06-14T11:57:41;7.40;;;3.30;;
54745;SDS011;40640;48.130;11.356;2023-06-14T12:01:47;6.10;;;2.85;;
54745;SDS011;40640;48.130;11.356;2023-06-14T12:06:01;7.00;;;3.33;;
54745;SDS011;40640;48.130;11.356;2023-06-14T12:10:05;8.15;;;4.00;;
54745;SDS011;40640;48.130;11.356;2023-06-14T12:14:09;6.35;;;4.50;;
54745;SDS011;40640;48.130;11.356;2023-06-14T12:18:14;13.60;;;4.47;;
54745;SDS011;40640;48.130;11.356;2023-06-14T12:22:17;3.92;;;3.45;;
54745;SDS011;40640;48.130;11.356;2023-06-14T12:26:20;3.85;;;3.20;;
54745;SDS011;40640;48.130;11.356;2023-06-14T12:30:23;5.75;;;3.88;;
54745;SDS011;40640;48.130;11.356;2023-06-14T12:34:27;3.90;;;3.33;;
54745;SDS011;40640;48.130;11.356;2023-06-14T12:38:30;6.15;;;2.63;;
54745;SDS011;40640;48.130;11.356;2023-06-14T12:42:33;7.97;;;2.90;;
54745;SDS011;40640;48.130;11.356;2023-06-14T12:46:36;4.10;;;2.97;;
54745;SDS011;40640;48.130;11.356;2023-06-14T12:50:42;5.45;;;2.88;;
54745;SDS011;40640;48.130;11.356;2023-06-14T12:54:45;3.10;;;2.80;;
54745;SDS011;40640;48.130;11.356;2023-06-14T12:58:48;5.47;;;3.17;;
54745;SDS011;40640;48.130;11.356;2023-06-14T13:02:51;2.90;;;2.60;;
54745;SDS011;40640;48.130;11.356;2023-06-14T13:06:56;9.40;;;3.20;;
54745;SDS011;40640;48.130;11.356;2023-06-14T13:10:58;3.10;;;2.60;;
54745;SDS011;40640;48.130;11.356;2023-06-14T13:15:01;5.90;;;3.22;;
54745;SDS011;40640;48.130;11.356;2023-06-14T13:19:04;5.40;;;2.90;;
54745;SDS011;40640;48.130;11.356;2023-06-14T13:23:09;6.53;;;2.75;;
54745;SDS011;40640;48.130;11.356;2023-06-14T13:27:12;6.85;;;3.10;;
54745;SDS011;40640;48.130;11.356;2023-06-14T13:31:15;7.93;;;3.33;;
54745;SDS011;40640;48.130;11.356;2023-06-14T13:35:18;5.90;;;3.03;;
54745;SDS011;40640;48.130;11.356;2023-06-14T13:39:23;7.30;;;2.67;;
54745;SDS011;40640;48.130;11.356;2023-06-14T13:43:26;10.05;;;2.53;;
54745;SDS011;40640;48.130;11.356;2023-06-14T13:47:29;7.85;;;3.03;;
54745;SDS011;40640;48.130;11.356;2023-06-14T13:51:32;6.85;;;3.20;;
54745;SDS011;40640;48.130;11.356;2023-06-14T13:55:37;6.30;;;3.20;;
54745;SDS011;40640;48.130;11.356;2023-06-14T13:59:40;5.88;;;3.15;;
54745;SDS011;40640;48.130;11.356;2023-06-14T14:03:45;7.25;;;3.40;;
54745;SDS011;40640;48.130;11.356;2023-06-14T14:07:48;6.18;;;3.28;;
54745;SDS011;40640;48.130;11.356;2023-06-14T14:11:52;6.40;;;3.17;;
54745;SDS011;40640;48.130;11.356;2023-06-14T14:15:55;8.18;;;3.92;;
54745;SDS011;40640;48.130;11.356;2023-06-14T14:19:59;5.13;;;2.90;;
54745;SDS011;40640;48.130;11.356;2023-06-14T14:24:02;8.90;;;3.40;;
54745;SDS011;40640;48.130;11.356;2023-06-14T14:28:07;7.90;;;3.70;;
54745;SDS011;40640;48.130;11.356;2023-06-14T14:32:09;5.50;;;3.10;;
54745;SDS011;40640;48.130;11.356;2023-06-14T14:36:15;4.57;;;2.90;;
54745;SDS011;40640;48.130;11.356;2023-06-14T14:40:18;9.73;;;3.83;;
54745;SDS011;40640;48.130;11.356;2023-06-14T14:44:22;11.23;;;2.70;;
54745;SDS011;40640;48.130;11.356;2023-06-14T14:48:25;11.80;;;3.58;;
54745;SDS011;40640;48.130;11.356;2023-06-14T14:52:28;6.93;;;3.20;;
54745;SDS011;40640;48.130;11.356;2023-06-14T14:56:31;8.05;;;3.13;;
54745;SDS011;40640;48.130;11.356;2023-06-14T15:00:37;5.32;;;3.20;;
54745;SDS011;40640;48.130;11.356;2023-06-14T15:04:40;10.60;;;3.40;;
54745;SDS011;40640;48.130;11.356;2023-06-14T15:08:43;6.40;;;3.15;;
54745;SDS011;40640;48.130;11.356;2023-06-14T15:12:46;4.68;;;2.65;;
54745;SDS011;40640;48.130;11.356;2023-06-14T15:16:51;14.32;;;3.08;;
54745;SDS011;40640;48.130;11.356;2023-06-14T15:20:54;6.15;;;2.65;;
54745;SDS011;40640;48.130;11.356;2023-06-14T15:24:56;5.82;;;3.13;;
54745;SDS011;40640;48.130;11.356;2023-06-14T15:28:59;6.57;;;3.10;;
54745;SDS011;40640;48.130;11.356;2023-06-14T15:33:04;9.52;;;3.28;;
54745;SDS011;40640;48.130;11.356;2023-06-14T15:37:07;6.57;;;3.13;;
54745;SDS011;40640;48.130;11.356;2023-06-14T15:41:10;4.60;;;2.88;;
54745;SDS011;40640;48.130;11.356;2023-06-14T15:45:13;8.85;;;3.05;;
54745;SDS011;40640;48.130;11.356;2023-06-14T15:49:18;8.15;;;3.08;;
54745;SDS011;40640;48.130;11.356;2023-06-14T15:53:21;3.70;;;2.88;;
54745;SDS011;40640;48.130;11.356;2023-06-14T15:57:24;6.90;;;2.78;;
54745;SDS011;40640;48.130;11.356;2023-06-14T16:01:27;7.72;;;3.25;;
54745;SDS011;40640;48.130;11.356;2023-06-14T16:05:32;7.38;;;3.25;;
54745;SDS011;40640;48.130;11.356;2023-06-14T16:09:35;5.95;;;3.05;;
54745;SDS011;40640;48.130;11.356;2023-06-14T16:13:39;8.57;;;3.08;;
54745;SDS011;40640;48.130;11.356;2023-06-14T16:21:48;5.53;;;3.00;;
54745;SDS011;40640;48.130;11.356;2023-06-14T16:25:51;6.47;;;3.05;;
54745;SDS011;40640;48.130;11.356;2023-06-14T16:29:54;7.55;;;3.00;;
54745;SDS011;40640;48.130;11.356;2023-06-14T16:33:57;12.00;;;3.30;;
54745;SDS011;40640;48.130;11.356;2023-06-14T16:38:01;3.97;;;2.97;;
54745;SDS011;40640;48.130;11.356;2023-06-14T16:42:05;9.38;;;3.40;;
54745;SDS011;40640;48.130;11.356;2023-06-14T16:46:08;6.22;;;3.03;;
54745;SDS011;40640;48.130;11.356;2023-06-14T16:50:12;5.20;;;2.88;;
54745;SDS011;40640;48.130;11.356;2023-06-14T16:54:17;7.40;;;3.60;;
54745;SDS011;40640;48.130;11.356;2023-06-14T16:58:20;8.52;;;3.15;;
54745;SDS011;40640;48.130;11.356;2023-06-14T17:02:23;7.78;;;3.40;;
54745;SDS011;40640;48.130;11.356;2023-06-14T17:06:26;7.72;;;3.00;;
54745;SDS011;40640;48.130;11.356;2023-06-14T17:10:30;7.75;;;3.13;;
54745;SDS011;40640;48.130;11.356;2023-06-14T17:14:33;4.57;;;3.17;;
54745;SDS011;40640;48.130;11.356;2023-06-14T17:18:36;6.13;;;3.13;;
54745;SDS011;40640;48.130;11.356;2023-06-14T17:22:40;9.80;;;2.88;;
54745;SDS011;40640;48.130;11.356;2023-06-14T17:26:46;3.90;;;3.20;;
54745;SDS011;40640;48.130;11.356;2023-06-14T17:30:50;6.32;;;3.03;;
54745;SDS011;40640;48.130;11.356;2023-06-14T17:34:53;7.78;;;3.80;;
54745;SDS011;40640;48.130;11.356;2023-06-14T17:38:56;6.38;;;3.20;;
54745;SDS011;40640;48.130;11.356;2023-06-14T17:43:00;4.55;;;3.55;;
54745;SDS011;40640;48.130;11.356;2023-06-14T17:47:03;6.95;;;3.00;;
54745;SDS011;40640;48.130;11.356;2023-06-14T17:51:06;6.78;;;4.00;;
54745;SDS011;40640;48.130;11.356;2023-06-14T17:55:09;8.05;;;3.47;;
54745;SDS011;40640;48.130;11.356;2023-06-14T17:59:13;4.10;;;3.03;;
54745;SDS011;40640;48.130;11.356;2023-06-14T18:03:17;6.00;;;3.15;;
54745;SDS011;40640;48.130;11.356;2023-06-14T18:07:20;6.25;;;3.28;;
54745;SDS011;40640;48.130;11.356;2023-06-14T18:11:23;4.20;;;3.30;;
54745;SDS011;40640;48.130;11.356;2023-06-14T18:15:28;5.65;;;2.97;;
54745;SDS011;40640;48.130;11.356;2023-06-14T18:19:31;9.32;;;3.40;;
54745;SDS011;40640;48.130;11.356;2023-06-14T18:23:35;6.60;;;3.60;;
54745;SDS011;40640;48.130;11.356;2023-06-14T18:27:38;4.25;;;3.20;;
54745;SDS011;40640;48.130;11.356;2023-06-14T18:31:43;4.93;;;3.38;;
54745;SDS011;40640;48.130;11.356;2023-06-14T18:35:46;4.22;;;2.80;;
54745;SDS011;40640;48.130;11.356;2023-06-14T18:39:48;8.18;;;3.53;;
54745;SDS011;40640;48.130;11.356;2023-06-14T18:43:51;7.47;;;3.58;;
54745;SDS011;40640;48.130;11.356;2023-06-14T18:47:56;5.60;;;3.58;;
54745;SDS011;40640;48.130;11.356;2023-06-14T18:51:59;18.70;;;3.65;;
54745;SDS011;40640;48.130;11.356;2023-06-14T18:56:02;9.20;;;3.50;;
54745;SDS011;40640;48.130;11.356;2023-06-14T19:00:06;4.78;;;3.45;;
54745;SDS011;40640;48.130;11.356;2023-06-14T19:04:11;9.93;;;3.42;;
54745;SDS011;40640;48.130;11.356;2023-06-14T19:08:14;6.72;;;3.45;;
54745;SDS011;40640;48.130;11.356;2023-06-14T19:12:17;5.93;;;3.38;;
54745;SDS011;40640;48.130;11.356;2023-06-14T19:16:20;9.27;;;3.30;;
54745;SDS011;40640;48.130;11.356;2023-06-14T19:20:24;6.32;;;3.70;;
54745;SDS011;40640;48.130;11.356;2023-06-14T19:24:28;9.30;;;3.60;;
54745;SDS011;40640;48.130;11.356;2023-06-14T19:28:33;32.00;;;15.35;;
54745;SDS011;40640;48.130;11.356;2023-06-14T19:32:37;19.40;;;8.68;;
54745;SDS011;40640;48.130;11.356;2023-06-14T19:36:41;17.90;;;6.00;;
54745;SDS011;40640;48.130;11.356;2023-06-14T19:40:44;8.88;;;4.45;;
54745;SDS011;40640;48.130;11.356;2023-06-14T19:44:47;8.77;;;3.53;;
54745;SDS011;40640;48.130;11.356;2023-06-14T19:48:50;7.28;;;3.60;;
54745;SDS011;40640;48.130;11.356;2023-06-14T19:52:54;8.50;;;3.83;;
54745;SDS011;40640;48.130;11.356;2023-06-14T19:56:57;10.00;;;4.03;;
54745;SDS011;40640;48.130;11.356;2023-06-14T20:01:00;8.63;;;3.95;;
54745;SDS011;40640;48.130;11.356;2023-06-14T20:05:06;9.18;;;4.35;;
54745;SDS011;40640;48.130;11.356;2023-06-14T20:09:10;5.88;;;4.35;;
54745;SDS011;40640;48.130;11.356;2023-06-14T20:13:15;8.40;;;4.72;;
54745;SDS011;40640;48.130;11.356;2023-06-14T20:17:18;8.70;;;4.75;;
54745;SDS011;40640;48.130;11.356;2023-06-14T20:21:21;7.97;;;5.25;;
54745;SDS011;40640;48.130;11.356;2023-06-14T20:25:25;9.70;;;4.82;;
54745;SDS011;40640;48.130;11.356;2023-06-14T20:29:28;13.13;;;4.90;;
54745;SDS011;40640;48.130;11.356;2023-06-14T20:37:37;9.60;;;5.03;;
54745;SDS011;40640;48.130;11.356;2023-06-14T20:41:42;8.80;;;5.30;;
54745;SDS011;40640;48.130;11.356;2023-06-14T20:45:44;8.75;;;4.28;;
54745;SDS011;40640;48.130;11.356;2023-06-14T20:49:47;9.23;;;4.68;;
54745;SDS011;40640;48.130;11.356;2023-06-14T20:53:50;7.50;;;4.57;;
54745;SDS011;40640;48.130;11.356;2023-06-14T20:57:55;11.15;;;4.70;;
54745;SDS011;40640;48.130;11.356;2023-06-14T21:06:31;13.07;;;4.60;;
54745;SDS011;40640;48.130;11.356;2023-06-14T21:10:34;13.32;;;4.53;;
54745;SDS011;40640;48.130;11.356;2023-06-14T21:14:38;7.85;;;3.95;;
54745;SDS011;40640;48.130;11.356;2023-06-14T21:18:41;7.78;;;4.30;;
54745;SDS011;40640;48.130;11.356;2023-06-14T21:22:44;9.55;;;3.92;;
54745;SDS011;40640;48.130;11.356;2023-06-14T21:26:47;12.73;;;4.38;;
54745;SDS011;40640;48.130;11.356;2023-06-14T21:30:52;7.18;;;4.50;;
54745;SDS011;40640;48.130;11.356;2023-06-14T21:34:55;12.10;;;4.07;;
54745;SDS011;40640;48.130;11.356;2023-06-14T21:38:58;7.03;;;4.40;;
54745;SDS011;40640;48.130;11.356;2023-06-14T21:43:00;7.75;;;3.92;;
54745;SDS011;40640;48.130;11.356;2023-06-14T21:47:05;8.00;;;4.53;;
54745;SDS011;40640;48.130;11.356;2023-06-14T21:51:08;5.70;;;4.32;;
54745;SDS011;40640;48.130;11.356;2023-06-14T21:55:11;10.48;;;4.63;;
54745;SDS011;40640;48.130;11.356;2023-06-14T21:59:14;8.07;;;4.95;;
54745;SDS011;40640;48.130;11.356;2023-06-14T22:03:19;11.15;;;4.85;;
54745;SDS011;40640;48.130;11.356;2023-06-14T22:07:22;7.28;;;4.60;;
54745;SDS011;40640;48.130;11.356;2023-06-14T22:11:25;10.75;;;4.80;;
54745;SDS011;40640;48.130;11.356;2023-06-14T22:15:30;9.80;;;5.20;;
54745;SDS011;40640;48.130;11.356;2023-06-14T22:19:36;10.85;;;5.22;;
54745;SDS011;40640;48.130;11.356;2023-06-14T22:23:39;7.43;;;4.57;;
54745;SDS011;40640;48.130;11.356;2023-06-14T22:27:44;9.15;;;4.95;;
54745;SDS011;40640;48.130;11.356;2023-06-14T22:31:48;11.32;;;4.70;;
54745;SDS011;40640;48.130;11.356;2023-06-14T22:35:52;7.68;;;4.35;;
54745;SDS011;40640;48.130;11.356;2023-06-14T22:39:55;10.00;;;5.50;;
54745;SDS011;40640;48.130;11.356;2023-06-14T22:43:58;27.42;;;5.93;;
54745;SDS011;40640;48.130;11.356;2023-06-14T22:48:02;6.80;;;5.00;;
54745;SDS011;40640;48.130;11.356;2023-06-14T22:52:06;9.15;;;4.90;;
54745;SDS011;40640;48.130;11.356;2023-06-14T22:56:11;8.70;;;5.13;;
54745;SDS011;40640;48.130;11.356;2023-06-14T23:00:15;11.13;;;4.68;;
54745;SDS011;40640;48.130;11.356;2023-06-14T23:04:18;7.93;;;5.10;;
54745;SDS011;40640;48.130;11.356;2023-06-14T23:08:25;9.90;;;5.00;;
54745;SDS011;40640;48.130;11.356;2023-06-14T23:12:28;10.98;;;5.32;;
54745;SDS011;40640;48.130;11.356;2023-06-14T23:16:31;11.25;;;4.68;;
54745;SDS011;40640;48.130;11.356;2023-06-14T23:20:36;11.68;;;4.65;;
54745;SDS011;40640;48.130;11.356;2023-06-14T23:24:41;9.98;;;5.20;;
54745;SDS011;40640;48.130;11.356;2023-06-14T23:28:43;10.95;;;5.18;;
54745;SDS011;40640;48.130;11.356;2023-06-14T23:32:47;8.25;;;5.03;;
54745;SDS011;40640;48.130;11.356;2023-06-14T23:36:52;14.23;;;4.72;;
54745;SDS011;40640;48.130;11.356;2023-06-14T23:40:56;12.27;;;5.95;;
54745;SDS011;40640;48.130;11.356;2023-06-14T23:44:59;5.95;;;5.15;;
54745;SDS011;40640;48.130;11.356;2023-06-14T23:49:03;10.18;;;4.80;;
54745;SDS011;40640;48.130;11.356;2023-06-14T23:53:06;10.82;;;4.55;;
54745;SDS011;40640;48.130;11.356;2023-06-14T23:57:12;10.95;;;5.50;;
